Time;durP1;ratioP1;P1;durP2;ratioP2;P2;SDS_P1;SDS_P2;PMS_P1;PMS_P2;Temp;Humidity;BMP_temperature;BMP_pressure;BME280_temperature;BME280_humidity;BME280_pressure;Samples;Min_cycle;Max_cycle;Signal;HPM_P1;HPM_P2
2023/01/04 00:01:48;;;;;;;8.57;2.70;;;8.60;99.90;;;;;;5057930;28;20047;-80
2023/01/04 00:04:14;;;;;;;7.75;2.33;;;8.60;99.90;;;;;;5074221;28;20395;-80
2023/01/04 00:06:39;;;;;;;5.75;2.53;;;8.60;99.90;;;;;;5041090;28;20067;-80
2023/01/04 00:09:05;;;;;;;8.00;2.47;;;8.60;99.90;;;;;;5058112;28;20032;-80
2023/01/04 00:11:31;;;;;;;7.53;2.53;;;8.60;99.90;;;;;;5057610;28;20086;-80
2023/01/04 00:13:58;;;;;;;11.38;2.72;;;8.60;99.90;;;;;;5056681;28;20396;-80
2023/01/04 00:16:25;;;;;;;10.70;2.65;;;8.50;99.90;;;;;;5073834;28;20036;-80
2023/01/04 00:18:53;;;;;;;7.05;2.55;;;8.50;99.90;;;;;;5073795;28;20503;-80
2023/01/04 00:21:27;;;;;;;8.73;2.67;;;8.50;99.90;;;;;;5073087;28;20544;-80
2023/01/04 00:23:54;;;;;;;5.68;2.33;;;8.50;99.90;;;;;;5074720;28;20074;-80
2023/01/04 00:26:23;;;;;;;10.60;2.85;;;8.40;99.90;;;;;;5074750;28;20555;-80
2023/01/04 00:28:53;;;;;;;6.55;2.42;;;8.40;99.90;;;;;;5074248;28;20048;-81
2023/01/04 00:31:20;;;;;;;7.93;2.75;;;8.40;99.90;;;;;;5074169;28;20047;-81
2023/01/04 00:33:45;;;;;;;8.07;2.85;;;8.40;99.90;;;;;;5073776;28;20117;-80
2023/01/04 00:36:13;;;;;;;7.20;2.70;;;8.40;99.90;;;;;;5039833;28;20044;-81
2023/01/04 00:38:39;;;;;;;7.82;2.42;;;8.30;99.90;;;;;;5073999;28;20040;-80
2023/01/04 00:41:06;;;;;;;3.83;2.10;;;8.30;99.90;;;;;;5054110;28;20511;-81
2023/01/04 00:43:32;;;;;;;6.55;2.17;;;8.30;99.90;;;;;;5070715;28;20460;-81
2023/01/04 00:46:00;;;;;;;8.55;2.80;;;8.40;99.90;;;;;;5070379;28;20136;-80
2023/01/04 00:48:26;;;;;;;3.95;1.92;;;8.30;99.90;;;;;;5070464;28;20551;-80
2023/01/04 00:50:51;;;;;;;8.25;2.75;;;8.30;99.90;;;;;;5070104;28;20040;-80
2023/01/04 00:53:17;;;;;;;6.68;2.88;;;8.30;99.90;;;;;;5053932;28;20052;-81
2023/01/04 00:55:44;;;;;;;7.32;2.47;;;8.30;99.90;;;;;;5053956;28;20397;-81
2023/01/04 00:58:10;;;;;;;8.82;3.05;;;8.30;99.90;;;;;;5069588;28;20040;-80
2023/01/04 01:00:36;;;;;;;8.63;2.72;;;8.30;99.90;;;;;;5069910;28;20044;-80
2023/01/04 01:03:02;;;;;;;8.35;3.15;;;8.20;99.90;;;;;;5069321;28;20036;-80
2023/01/04 01:05:28;;;;;;;5.90;2.30;;;8.20;99.90;;;;;;5053257;28;20185;-81
2023/01/04 01:07:54;;;;;;;4.30;2.53;;;8.20;99.90;;;;;;5053187;28;20452;-80
2023/01/04 01:10:19;;;;;;;5.85;2.78;;;8.20;99.90;;;;;;5036459;28;20369;-81
2023/01/04 01:12:45;;;;;;;6.53;2.75;;;8.10;99.90;;;;;;5069785;28;20074;-81
2023/01/04 01:15:11;;;;;;;7.93;2.78;;;8.20;99.90;;;;;;5069918;28;20040;-81
2023/01/04 01:17:36;;;;;;;8.77;2.72;;;8.20;99.90;;;;;;5052838;28;20044;-81
2023/01/04 01:20:03;;;;;;;5.15;2.30;;;8.20;99.90;;;;;;5053015;28;20096;-82
2023/01/04 01:22:30;;;;;;;9.80;3.08;;;8.20;99.90;;;;;;5069131;28;20369;-82
2023/01/04 01:24:55;;;;;;;6.80;2.67;;;8.30;99.90;;;;;;5052760;28;20622;-82
2023/01/04 01:27:21;;;;;;;5.70;2.30;;;8.30;99.90;;;;;;5052902;28;20051;-82
2023/01/04 01:29:47;;;;;;;6.78;2.28;;;8.30;99.90;;;;;;5052307;28;20044;-82
2023/01/04 01:32:13;;;;;;;4.80;1.90;;;8.30;99.90;;;;;;5067755;28;20044;-82
2023/01/04 01:34:38;;;;;;;6.40;2.47;;;8.30;99.90;;;;;;5053182;28;20032;-82
2023/01/04 01:37:04;;;;;;;5.80;2.42;;;8.30;99.90;;;;;;5069301;28;20119;-82
2023/01/04 01:39:30;;;;;;;5.13;1.98;;;8.40;99.90;;;;;;5070410;28;20032;-82
2023/01/04 01:41:56;;;;;;;7.85;2.58;;;8.30;99.90;;;;;;5072836;28;20415;-82
2023/01/04 01:44:40;;;;;;;6.30;2.30;;;8.30;99.90;;;;;;5072781;28;20072;-82
2023/01/04 01:47:20;;;;;;;5.07;2.53;;;8.30;99.90;;;;;;5055961;28;20032;-81
2023/01/04 01:49:48;;;;;;;8.45;2.75;;;8.30;99.90;;;;;;5055910;28;20048;-82
2023/01/04 01:52:20;;;;;;;7.85;1.83;;;8.30;99.90;;;;;;5072663;28;20044;-82
2023/01/04 01:54:51;;;;;;;4.22;2.20;;;8.30;99.90;;;;;;5072231;28;20097;-82
2023/01/04 01:57:21;;;;;;;6.53;2.40;;;8.30;99.90;;;;;;5072041;28;20044;-82
2023/01/04 01:59:49;;;;;;;6.15;2.20;;;8.30;99.90;;;;;;5070988;28;20497;-82
2023/01/04 02:02:14;;;;;;;5.63;2.30;;;8.30;99.90;;;;;;5056451;28;20040;-82
2023/01/04 02:04:45;;;;;;;5.15;2.13;;;8.30;99.90;;;;;;5055376;28;20047;-82
2023/01/04 02:07:15;;;;;;;5.35;1.90;;;8.30;99.90;;;;;;5055724;28;20415;-82
2023/01/04 02:09:41;;;;;;;4.55;1.88;;;8.40;99.90;;;;;;5072804;28;20054;-82
2023/01/04 02:12:11;;;;;;;4.25;2.05;;;8.50;99.90;;;;;;5072520;28;20052;-82
2023/01/04 02:14:37;;;;;;;5.57;1.90;;;8.40;99.90;;;;;;5071367;28;20590;-82
2023/01/04 02:17:09;;;;;;;3.00;1.73;;;8.40;99.90;;;;;;5039476;28;20126;-82
2023/01/04 02:20:03;;;;;;;4.32;2.05;;;8.40;99.90;;;;;;5072711;28;20492;-82
2023/01/04 02:22:56;;;;;;;1.80;1.40;;;8.50;99.90;;;;;;5072291;28;20384;-82
2023/01/04 02:25:43;;;;;;;3.67;1.67;;;8.50;99.90;;;;;;5072124;28;20052;-82
2023/01/04 02:28:20;;;;;;;2.65;1.80;;;8.50;99.90;;;;;;5062525;28;20039;-83
2023/01/04 02:31:07;;;;;;;3.65;1.63;;;8.50;99.90;;;;;;5055271;28;20484;-82
2023/01/04 02:33:48;;;;;;;3.78;1.63;;;8.50;99.90;;;;;;5071931;28;20043;-83
2023/01/04 02:36:32;;;;;;;2.33;1.42;;;8.50;99.90;;;;;;5071868;28;20048;-85
2023/01/04 02:39:27;;;;;;;4.35;1.75;;;8.50;99.90;;;;;;5071387;28;20484;-86
2023/01/04 02:44:51;;;;;;;3.42;1.38;;;8.50;99.90;;;;;;5051170;28;20546;-86
2023/01/04 02:45:15;;;;;;;4.40;1.65;;;8.50;99.90;;;;;;5049282;28;20044;-85
2023/01/04 02:50:32;;;;;;;3.80;1.90;;;8.60;99.90;;;;;;5078402;28;20075;-85
2023/01/04 02:53:11;;;;;;;3.03;1.23;;;8.80;99.90;;;;;;5061605;28;20047;-84
2023/01/04 02:55:57;;;;;;;1.65;0.82;;;8.70;99.90;;;;;;5062285;28;20536;-85
2023/01/04 02:59:02;;;;;;;1.98;1.50;;;8.70;99.90;;;;;;5076744;28;20073;-84
2023/01/04 03:08:38;;;;;;;3.67;1.63;;;8.90;99.90;;;;;;5076140;28;20703;-83
2023/01/04 03:12:30;;;;;;;2.90;1.88;;;8.90;99.90;;;;;;5015939;28;20083;-84
2023/01/04 03:13:55;;;;;;;4.57;2.13;;;9.00;99.90;;;;;;5016259;28;20041;-83
2023/01/04 03:16:23;;;;;;;3.05;2.20;;;9.10;99.90;;;;;;5039659;28;20079;-83
2023/01/04 03:18:56;;;;;;;4.07;2.30;;;9.10;99.90;;;;;;5076844;28;20049;-82
2023/01/04 03:21:25;;;;;;;4.40;3.15;;;9.20;99.90;;;;;;5079007;28;20097;-83
2023/01/04 03:35:21;;;;;;;4.97;3.08;;;9.20;99.90;;;;;;5077696;28;20047;-83
2023/01/04 03:36:26;;;;;;;4.43;2.80;;;9.30;99.90;;;;;;5077322;28;20046;-83
2023/01/04 03:50:32;;;;;;;3.05;2.75;;;9.40;99.90;;;;;;5074233;28;20047;-83
2023/01/04 03:52:58;;;;;;;3.80;2.70;;;9.40;99.90;;;;;;5074518;28;20048;-83
2023/01/04 03:55:28;;;;;;;5.30;3.30;;;9.40;99.90;;;;;;5058106;28;20097;-83
2023/01/04 03:57:54;;;;;;;4.28;2.90;;;9.40;99.90;;;;;;5074246;28;20102;-83
2023/01/04 04:00:20;;;;;;;3.28;3.00;;;9.50;99.90;;;;;;5074024;28;20119;-83
2023/01/04 04:02:47;;;;;;;3.47;3.13;;;9.50;99.90;;;;;;5057374;28;20051;-84
2023/01/04 04:10:49;;;;;;;5.47;4.18;;;9.60;99.90;;;;;;5059671;28;20066;-86
2023/01/04 04:13:15;;;;;;;3.85;3.55;;;9.60;99.90;;;;;;5040449;28;20204;-87
2023/01/04 04:15:41;;;;;;;4.05;3.65;;;9.60;99.90;;;;;;5025031;28;20115;-88
2023/01/04 04:18:06;;;;;;;4.50;4.10;;;9.70;99.90;;;;;;5057297;28;20036;-87
2023/01/04 04:20:32;;;;;;;4.40;4.05;;;9.70;99.90;;;;;;5024942;28;20040;-87
2023/01/04 04:22:58;;;;;;;7.70;4.40;;;9.70;99.90;;;;;;5057629;28;20071;-87
2023/01/04 04:25:24;;;;;;;5.88;3.80;;;9.70;99.90;;;;;;5041003;28;20487;-87
2023/01/04 04:27:49;;;;;;;4.63;4.22;;;9.80;99.90;;;;;;5040875;28;20047;-88
2023/01/04 04:30:15;;;;;;;5.13;4.60;;;9.80;99.90;;;;;;5042095;28;20047;-87
2023/01/04 04:32:41;;;;;;;4.47;4.07;;;9.80;99.90;;;;;;5056417;28;20036;-87
2023/01/04 04:35:07;;;;;;;4.20;3.80;;;9.80;99.90;;;;;;5073916;28;20032;-87
2023/01/04 04:37:33;;;;;;;5.53;5.03;;;9.90;99.90;;;;;;5024526;28;20035;-86
2023/01/04 04:40:00;;;;;;;6.72;5.10;;;9.90;99.90;;;;;;5024295;28;20044;-86
2023/01/04 04:42:26;;;;;;;5.95;4.22;;;9.90;99.90;;;;;;5057107;28;20442;-85
2023/01/04 04:44:51;;;;;;;6.40;5.40;;;9.90;99.90;;;;;;5074279;28;20055;-86
2023/01/04 04:47:17;;;;;;;6.47;5.57;;;9.90;99.90;;;;;;5024838;28;20036;-86
2023/01/04 04:49:43;;;;;;;6.47;5.88;;;9.90;99.90;;;;;;5024353;28;20048;-86
2023/01/04 04:52:08;;;;;;;7.20;6.07;;;9.90;99.90;;;;;;5040668;28;20075;-86
2023/01/04 04:54:34;;;;;;;4.75;4.22;;;10.00;99.90;;;;;;5055933;28;20344;-87
2023/01/04 04:57:00;;;;;;;8.48;5.80;;;9.90;99.90;;;;;;5056827;28;20127;-87
2023/01/04 04:59:25;;;;;;;6.80;5.20;;;10.00;99.90;;;;;;5040787;28;20044;-87
2023/01/04 05:01:51;;;;;;;7.25;6.60;;;10.10;99.90;;;;;;5024120;28;20399;-87
2023/01/04 05:04:18;;;;;;;7.78;6.80;;;10.10;99.90;;;;;;5040361;28;20032;-87
2023/01/04 05:06:48;;;;;;;7.25;6.30;;;10.10;99.90;;;;;;5055910;28;20130;-86
2023/01/04 05:09:15;;;;;;;6.40;5.65;;;10.10;99.90;;;;;;5072830;28;20090;-86
2023/01/04 05:14:26;;;;;;;7.10;5.68;;;10.20;99.90;;;;;;5073602;28;20067;-86
2023/01/04 05:16:52;;;;;;;7.30;6.45;;;10.20;99.90;;;;;;5072395;28;20040;-85
2023/01/04 05:19:18;;;;;;;8.48;6.22;;;10.20;99.90;;;;;;5056514;28;20040;-87
2023/01/04 05:21:44;;;;;;;6.38;5.78;;;10.30;99.90;;;;;;5039353;28;20039;-85
2023/01/04 05:24:10;;;;;;;7.47;6.05;;;10.30;99.90;;;;;;5039834;28;20085;-85
2023/01/04 05:26:36;;;;;;;8.95;5.90;;;10.40;99.90;;;;;;5039793;28;20399;-85
2023/01/04 05:29:03;;;;;;;8.10;6.00;;;10.40;99.90;;;;;;5072289;28;20039;-84
2023/01/04 05:31:28;;;;;;;8.38;5.38;;;10.40;99.90;;;;;;5072691;28;20550;-84
2023/01/04 05:33:54;;;;;;;6.05;5.10;;;10.50;99.90;;;;;;5039462;28;20126;-85
2023/01/04 05:36:20;;;;;;;8.90;5.38;;;10.50;99.90;;;;;;5055506;28;20036;-84
2023/01/04 05:38:45;;;;;;;5.07;4.57;;;10.60;99.90;;;;;;5040907;28;20170;-84
2023/01/04 05:43:58;;;;;;;6.55;5.03;;;10.60;99.90;;;;;;5044785;28;20105;-84
2023/01/04 05:46:24;;;;;;;7.88;5.32;;;10.60;99.90;;;;;;5056189;28;20048;-84
2023/01/04 05:48:50;;;;;;;6.20;4.78;;;10.60;99.90;;;;;;5039355;28;20330;-84
2023/01/04 05:51:15;;;;;;;7.90;4.70;;;10.60;99.90;;;;;;5039410;28;20496;-84
2023/01/04 05:53:41;;;;;;;6.15;4.82;;;10.60;99.90;;;;;;5055882;28;20043;-84
2023/01/04 05:56:07;;;;;;;6.72;4.63;;;10.70;99.90;;;;;;5038972;28;20048;-85
2023/01/04 05:58:33;;;;;;;5.65;5.03;;;10.60;99.90;;;;;;5038196;28;20044;-85
2023/01/04 06:00:58;;;;;;;6.00;4.32;;;10.60;99.90;;;;;;5023024;28;20032;-84
2023/01/04 06:03:24;;;;;;;5.18;4.47;;;10.70;99.90;;;;;;5022480;28;20086;-85
2023/01/04 06:05:50;;;;;;;6.65;4.30;;;10.70;99.90;;;;;;5054293;28;20050;-86
2023/01/04 06:08:16;;;;;;;15.35;5.45;;;10.80;99.90;;;;;;5039392;28;20443;-88
2023/01/04 06:10:42;;;;;;;6.50;4.45;;;10.70;99.90;;;;;;5040138;28;20125;-89
2023/01/04 06:13:07;;;;;;;7.80;4.53;;;10.70;99.90;;;;;;5057593;28;20720;-89
2023/01/04 06:15:33;;;;;;;6.28;4.57;;;10.60;99.90;;;;;;5057954;28;20067;-89
2023/01/04 06:17:59;;;;;;;5.35;4.35;;;10.70;99.90;;;;;;5060162;28;20540;-89
2023/01/04 06:20:25;;;;;;;9.40;4.13;;;10.70;99.90;;;;;;5042323;28;20039;-89
2023/01/04 06:22:51;;;;;;;5.43;3.35;;;10.70;99.90;;;;;;5025795;28;20040;-88
2023/01/04 06:25:17;;;;;;;2.47;1.92;;;10.70;99.90;;;;;;5057307;28;20089;-88
2023/01/04 06:27:43;;;;;;;7.35;2.67;;;10.70;99.90;;;;;;5056870;28;20485;-87
2023/01/04 06:30:09;;;;;;;9.63;3.22;;;10.70;99.90;;;;;;5055335;28;20556;-88
2023/01/04 06:32:35;;;;;;;2.90;2.60;;;10.70;99.90;;;;;;5057287;28;20048;-90
2023/01/04 06:35:01;;;;;;;3.30;2.50;;;10.70;99.90;;;;;;5057490;28;20476;-93
2023/01/04 06:37:26;;;;;;;2.85;2.45;;;10.70;99.90;;;;;;5042961;28;20040;-91
2023/01/04 06:39:52;;;;;;;2.90;2.60;;;10.70;99.90;;;;;;5059636;28;20060;-91
2023/01/04 06:45:03;;;;;;;2.55;2.35;;;10.70;99.90;;;;;;5075351;28;20048;-91
2023/01/04 06:47:29;;;;;;;3.13;2.50;;;10.70;99.90;;;;;;5058088;28;20040;-91
2023/01/04 06:49:54;;;;;;;2.88;2.58;;;10.70;99.90;;;;;;5056108;28;20115;-90
2023/01/04 06:52:20;;;;;;;3.17;2.55;;;10.70;99.90;;;;;;5056663;28;20040;-91
2023/01/04 06:54:46;;;;;;;2.80;2.50;;;10.70;99.90;;;;;;5042120;28;20091;-91
2023/01/04 06:57:12;;;;;;;2.60;2.35;;;10.70;99.90;;;;;;5042281;28;20101;-91
2023/01/04 06:59:38;;;;;;;3.15;2.85;;;10.70;99.90;;;;;;5041240;28;20047;-91
2023/01/04 07:02:04;;;;;;;3.03;2.70;;;10.80;99.90;;;;;;5042175;28;20040;-89
2023/01/04 07:04:29;;;;;;;3.85;3.15;;;10.80;99.90;;;;;;5057867;28;20395;-90
2023/01/04 07:06:56;;;;;;;3.95;2.50;;;10.80;99.90;;;;;;5041409;28;20047;-88
2023/01/04 07:09:22;;;;;;;2.72;2.45;;;10.80;99.90;;;;;;5041847;28;20032;-89
2023/01/04 07:11:48;;;;;;;4.63;2.95;;;10.80;99.90;;;;;;5023681;28;20044;-88
2023/01/04 07:14:14;;;;;;;4.15;3.40;;;10.80;99.90;;;;;;5059154;28;20411;-91
2023/01/04 07:16:39;;;;;;;3.95;3.00;;;10.80;99.90;;;;;;5043772;28;20032;-92
2023/01/04 07:19:07;;;;;;;4.53;3.42;;;10.80;99.90;;;;;;5027048;28;20072;-90
2023/01/04 07:21:33;;;;;;;4.85;2.90;;;10.80;99.90;;;;;;5057800;28;20375;-90
2023/01/04 07:23:59;;;;;;;4.22;3.35;;;10.80;99.90;;;;;;5058159;28;20127;-85
2023/01/04 07:26:24;;;;;;;5.15;3.20;;;10.80;99.90;;;;;;5044207;28;20043;-91
2023/01/04 07:31:34;;;;;;;4.55;3.30;;;10.70;99.90;;;;;;5050598;28;20052;-90
2023/01/04 07:34:00;;;;;;;4.07;3.65;;;10.70;99.90;;;;;;5060730;28;20039;-86
2023/01/04 07:36:25;;;;;;;4.15;3.22;;;10.80;99.90;;;;;;5058261;28;20054;-85
2023/01/04 07:38:51;;;;;;;4.55;3.58;;;10.80;99.90;;;;;;5040948;28;20040;-85
2023/01/04 07:41:17;;;;;;;7.07;4.53;;;10.80;99.90;;;;;;5075123;28;20071;-85
2023/01/04 07:43:42;;;;;;;6.22;4.15;;;10.40;99.90;;;;;;5059033;28;20048;-85
2023/01/04 07:46:08;;;;;;;8.88;4.72;;;10.80;99.90;;;;;;5042524;28;20044;-84
2023/01/04 07:48:34;;;;;;;6.78;4.70;;;10.80;99.90;;;;;;5074846;28;20048;-86
2023/01/04 07:50:59;;;;;;;6.78;4.90;;;10.80;99.90;;;;;;5023694;28;20044;-83
2023/01/04 07:53:25;;;;;;;5.85;4.70;;;10.80;99.90;;;;;;5023372;28;20032;-85
2023/01/04 07:55:56;;;;;;;9.23;5.47;;;10.80;99.90;;;;;;5057740;28;20047;-85
2023/01/04 07:58:21;;;;;;;7.28;5.18;;;10.80;99.90;;;;;;5057904;28;20085;-86
2023/01/04 08:00:47;;;;;;;8.45;5.53;;;10.90;99.90;;;;;;5058043;28;20040;-86
2023/01/04 08:03:13;;;;;;;8.05;5.35;;;10.80;99.90;;;;;;5041843;28;20127;-86
2023/01/04 08:05:38;;;;;;;6.75;5.05;;;10.90;99.90;;;;;;5057712;28;20454;-85
2023/01/04 08:08:04;;;;;;;7.43;5.10;;;10.90;99.90;;;;;;5041457;28;20043;-86
2023/01/04 08:10:30;;;;;;;11.15;5.93;;;11.10;99.90;;;;;;5057380;28;20495;-86
2023/01/04 08:12:58;;;;;;;8.27;5.00;;;10.90;99.90;;;;;;5057896;28;20055;-85
2023/01/04 08:15:27;;;;;;;9.02;5.38;;;10.90;99.90;;;;;;5058019;28;20071;-86
2023/01/04 08:17:55;;;;;;;7.50;4.60;;;10.90;99.90;;;;;;5072743;28;20036;-86
2023/01/04 08:20:21;;;;;;;6.28;5.28;;;10.90;99.90;;;;;;5073855;28;20036;-87
2023/01/04 08:22:47;;;;;;;7.45;5.32;;;10.90;99.90;;;;;;5057490;28;20044;-86
2023/01/04 08:25:12;;;;;;;8.13;5.00;;;10.90;99.90;;;;;;5041936;28;20071;-85
2023/01/04 08:27:40;;;;;;;8.02;4.90;;;10.90;99.90;;;;;;5058141;28;20514;-86
2023/01/04 08:30:07;;;;;;;6.72;5.30;;;11.00;99.90;;;;;;5049453;28;20044;-86
2023/01/04 08:32:33;;;;;;;6.78;5.07;;;10.90;99.90;;;;;;5057986;28;20043;-87
2023/01/04 08:34:58;;;;;;;11.00;4.93;;;10.90;99.90;;;;;;5057496;28;20040;-86
2023/01/04 08:37:25;;;;;;;5.60;3.42;;;10.90;99.90;;;;;;5057115;28;20051;-86
2023/01/04 08:39:51;;;;;;;6.93;4.38;;;10.90;99.90;;;;;;5074784;28;20480;-86
2023/01/04 08:42:16;;;;;;;5.55;4.00;;;10.90;99.90;;;;;;5041443;28;20135;-85
2023/01/04 08:44:42;;;;;;;7.97;4.18;;;11.00;99.90;;;;;;5057816;28;20051;-86
2023/01/04 08:47:08;;;;;;;7.10;4.00;;;10.90;99.90;;;;;;5041149;28;20185;-87
2023/01/04 08:49:34;;;;;;;5.57;4.20;;;10.90;99.90;;;;;;5040880;28;20060;-87
2023/01/04 08:52:00;;;;;;;4.63;4.07;;;11.00;99.90;;;;;;5058149;28;20040;-87
2023/01/04 08:54:25;;;;;;;4.35;3.50;;;11.00;99.90;;;;;;5057482;28;20131;-87
2023/01/04 08:56:51;;;;;;;6.43;4.00;;;11.00;99.90;;;;;;5056564;28;20074;-85
2023/01/04 08:59:17;;;;;;;5.90;3.70;;;11.00;99.90;;;;;;5072479;28;20072;-89
2023/01/04 09:01:43;;;;;;;6.63;3.42;;;11.00;99.90;;;;;;5056747;28;20120;-86
2023/01/04 09:04:08;;;;;;;5.63;3.38;;;11.10;99.90;;;;;;5056496;28;20044;-87
2023/01/04 09:06:35;;;;;;;4.03;3.20;;;11.10;99.90;;;;;;5056347;28;20042;-86
2023/01/04 09:09:01;;;;;;;5.00;3.40;;;11.10;99.90;;;;;;5040169;28;20127;-86
2023/01/04 09:11:27;;;;;;;4.30;2.92;;;11.10;99.90;;;;;;5055390;28;20123;-86
2023/01/04 09:13:58;;;;;;;7.28;3.10;;;11.10;99.90;;;;;;5056013;28;20082;-87
2023/01/04 09:16:24;;;;;;;3.97;2.78;;;11.10;99.90;;;;;;5073614;28;20044;-87
2023/01/04 09:18:50;;;;;;;4.63;2.55;;;11.10;99.90;;;;;;5055945;28;20498;-87
2023/01/04 09:21:20;;;;;;;3.42;2.33;;;11.00;99.90;;;;;;5071903;28;20039;-85
2023/01/04 09:23:46;;;;;;;4.45;2.60;;;11.00;99.90;;;;;;5056380;28;20048;-85
2023/01/04 09:26:21;;;;;;;4.07;2.20;;;11.00;99.90;;;;;;5073189;28;20058;-86
2023/01/04 09:28:47;;;;;;;3.55;2.20;;;11.00;99.90;;;;;;5067271;28;20101;-86
2023/01/04 09:31:15;;;;;;;4.38;1.80;;;11.10;99.90;;;;;;5050714;28;20496;-87
2023/01/04 09:33:43;;;;;;;2.92;2.08;;;11.10;99.90;;;;;;5054829;28;20040;-85
2023/01/04 09:36:12;;;;;;;2.35;1.55;;;11.10;99.90;;;;;;5055882;28;20040;-86
2023/01/04 09:38:38;;;;;;;2.33;1.45;;;11.10;99.90;;;;;;5072449;28;20067;-86
2023/01/04 09:41:12;;;;;;;2.45;1.55;;;11.10;99.90;;;;;;5039360;28;20507;-86
2023/01/04 09:43:50;;;;;;;2.13;1.02;;;11.10;99.90;;;;;;5055349;28;20117;-87
2023/01/04 09:46:34;;;;;;;2.55;1.27;;;11.10;99.90;;;;;;5054175;28;20438;-87
2023/01/04 09:49:16;;;;;;;1.58;1.05;;;11.10;99.90;;;;;;5054807;28;20039;-86
2023/01/04 09:51:50;;;;;;;2.03;1.30;;;11.10;99.90;;;;;;5055327;28;20058;-86
2023/01/04 09:54:19;;;;;;;3.58;1.40;;;11.10;99.90;;;;;;5054738;28;20043;-87
2023/01/04 09:56:52;;;;;;;1.70;1.02;;;11.10;99.90;;;;;;5055960;28;20370;-86
2023/01/04 09:59:22;;;;;;;2.50;1.13;;;11.20;99.90;;;;;;5069417;28;20444;-87
2023/01/04 10:01:54;;;;;;;3.08;1.40;;;11.20;99.90;;;;;;5052621;28;20040;-87
2023/01/04 10:04:24;;;;;;;3.05;1.50;;;11.10;99.90;;;;;;5068304;28;20150;-87
2023/01/04 10:06:51;;;;;;;2.45;1.48;;;11.20;99.90;;;;;;5055404;28;20083;-87
2023/01/04 10:09:17;;;;;;;3.33;1.52;;;11.30;99.90;;;;;;5055191;28;20105;-88
2023/01/04 10:12:05;;;;;;;3.00;1.55;;;11.30;99.90;;;;;;5055593;28;20065;-87
2023/01/04 10:15:03;;;;;;;5.82;1.80;;;11.30;99.90;;;;;;5045898;28;20040;-86
2023/01/04 10:17:52;;;;;;;4.15;1.90;;;11.30;99.90;;;;;;5051386;28;20047;-86
2023/01/04 10:20:27;;;;;;;4.15;1.88;;;11.30;99.90;;;;;;5044776;28;20075;-87
2023/01/04 10:23:06;;;;;;;6.15;1.70;;;11.40;99.90;;;;;;5055780;28;20045;-87
2023/01/04 10:25:56;;;;;;;5.65;2.20;;;11.40;99.90;;;;;;5070915;28;20170;-88
2023/01/04 10:29:02;;;;;;;7.32;1.98;;;11.40;99.90;;;;;;5063669;28;20043;-88
2023/01/04 10:31:58;;;;;;;8.88;2.38;;;11.50;99.90;;;;;;5072479;28;20044;-87
2023/01/04 10:34:28;;;;;;;9.95;2.30;;;11.50;99.90;;;;;;5054810;28;20083;-88
2023/01/04 10:37:03;;;;;;;8.20;2.20;;;11.50;99.90;;;;;;5054656;28;20048;-88
2023/01/04 10:39:32;;;;;;;10.55;2.80;;;11.60;99.90;;;;;;5071291;28;20039;-88
2023/01/04 10:42:39;;;;;;;11.75;3.10;;;11.60;99.90;;;;;;5056452;28;20044;-89
2023/01/04 10:45:20;;;;;;;11.13;2.28;;;11.60;99.90;;;;;;5056220;28;20101;-88
2023/01/04 10:48:04;;;;;;;10.45;3.15;;;11.70;99.90;;;;;;5072605;28;20044;-89
2023/01/04 10:50:42;;;;;;;12.57;2.55;;;11.80;99.90;;;;;;5056228;28;20102;-88
2023/01/04 10:53:31;;;;;;;10.32;2.65;;;11.90;99.90;;;;;;5045053;28;20035;-88
2023/01/04 10:56:19;;;;;;;10.18;2.60;;;11.80;99.90;;;;;;5055797;28;20044;-90
2023/01/04 10:59:14;;;;;;;15.02;3.40;;;11.10;99.90;;;;;;5055097;28;20114;-89
2023/01/04 11:01:47;;;;;;;10.80;3.22;;;11.90;99.90;;;;;;5050717;28;20039;-89
2023/01/04 11:04:37;;;;;;;16.08;2.83;;;11.90;99.90;;;;;;5050905;28;20063;-90
2023/01/04 11:07:23;;;;;;;14.15;3.00;;;11.90;99.90;;;;;;5057103;28;20040;-91
2023/01/04 11:10:12;;;;;;;10.80;2.53;;;11.90;99.90;;;;;;5057639;28;20511;-89
2023/01/04 11:12:38;;;;;;;11.98;2.72;;;11.90;99.90;;;;;;5056720;28;20052;-90
2023/01/04 11:15:04;;;;;;;15.05;2.40;;;11.90;99.90;;;;;;5061021;28;20089;-91
2023/01/04 11:28:50;;;;;;;13.30;2.85;;;12.20;99.90;;;;;;5092382;28;20058;-89
2023/01/04 11:31:28;;;;;;;13.02;2.80;;;12.20;99.90;;;;;;5057682;28;20051;-89
2023/01/04 11:33:56;;;;;;;14.02;3.22;;;12.20;99.90;;;;;;5074149;28;20126;-88
2023/01/04 11:36:38;;;;;;;17.45;3.90;;;12.20;99.90;;;;;;5050756;28;20036;-90
2023/01/04 11:39:17;;;;;;;13.20;3.40;;;12.20;99.90;;;;;;5056640;28;20039;-89
2023/01/04 11:42:04;;;;;;;15.30;3.30;;;12.20;99.90;;;;;;5058108;28;20087;-89
2023/01/04 11:44:35;;;;;;;12.32;3.30;;;12.20;99.90;;;;;;5059367;28;20143;-90
2023/01/04 11:47:07;;;;;;;14.52;3.20;;;12.20;99.90;;;;;;5058872;28;20491;-90
2023/01/04 11:49:37;;;;;;;14.88;3.88;;;12.30;99.90;;;;;;5067384;28;20040;-91
2023/01/04 11:52:04;;;;;;;12.73;3.70;;;12.20;99.90;;;;;;5059959;28;20071;-90
2023/01/04 11:54:30;;;;;;;15.90;3.13;;;12.20;99.90;;;;;;5057324;28;20169;-90
2023/01/04 11:57:09;;;;;;;9.38;3.25;;;12.30;99.90;;;;;;5060416;28;20068;-90
2023/01/04 11:59:35;;;;;;;10.10;1.95;;;12.20;99.90;;;;;;5061629;28;20460;-91
2023/01/04 12:02:23;;;;;;;9.10;2.05;;;12.30;99.90;;;;;;5043264;28;20063;-89
2023/01/04 12:04:51;;;;;;;8.73;1.67;;;12.30;99.90;;;;;;5079058;28;20055;-92
2023/01/04 12:07:31;;;;;;;5.75;1.50;;;11.80;99.90;;;;;;5061195;28;20044;-92
2023/01/04 12:10:12;;;;;;;5.20;1.20;;;12.20;99.90;;;;;;5060217;28;20575;-91
2023/01/04 12:12:38;;;;;;;5.40;1.38;;;12.10;99.90;;;;;;5061837;28;20048;-93
2023/01/04 12:15:13;;;;;;;5.03;1.63;;;12.10;99.90;;;;;;5063613;28;20498;-91
2023/01/04 12:18:10;;;;;;;3.43;1.53;;;12.20;99.90;;;;;;5067163;28;20036;-91
2023/01/04 12:20:35;;;;;;;6.32;1.50;;;12.10;99.90;;;;;;5076788;28;20044;-91
2023/01/04 12:23:01;;;;;;;4.88;1.60;;;12.10;99.90;;;;;;5060574;28;20042;-93
2023/01/04 12:25:44;;;;;;;7.45;2.25;;;12.20;99.90;;;;;;5061361;28;20484;-92
2023/01/04 12:28:37;;;;;;;4.90;1.77;;;12.20;99.90;;;;;;5061062;28;20130;-93
2023/01/04 12:31:18;;;;;;;7.32;1.30;;;12.20;99.90;;;;;;5049639;28;20477;-91
2023/01/04 12:33:48;;;;;;;4.72;1.13;;;12.20;99.90;;;;;;5077518;28;20040;-93
2023/01/04 12:36:39;;;;;;;2.92;1.20;;;12.10;99.90;;;;;;5060064;28;20189;-92
2023/01/04 12:39:14;;;;;;;6.55;1.13;;;12.10;99.90;;;;;;5017078;28;20132;-93
2023/01/04 12:41:59;;;;;;;8.52;1.52;;;12.00;99.90;;;;;;5063181;28;20108;-92
2023/01/04 12:44:42;;;;;;;5.55;1.45;;;12.10;99.90;;;;;;5061533;28;20132;-93
2023/01/04 12:50:03;;;;;;;7.68;2.10;;;12.10;99.90;;;;;;5078297;28;20055;-90
2023/01/04 12:52:36;;;;;;;7.15;1.92;;;12.10;99.90;;;;;;5060810;28;20040;-90
2023/01/04 12:55:22;;;;;;;10.40;1.80;;;12.20;99.90;;;;;;5059706;28;20032;-91
2023/01/04 12:57:48;;;;;;;13.98;3.17;;;12.20;99.90;;;;;;5058699;28;20051;-91
2023/01/04 13:00:15;;;;;;;11.23;2.45;;;12.10;99.90;;;;;;5058502;28;20035;-90
2023/01/04 13:02:49;;;;;;;10.65;2.33;;;12.20;99.90;;;;;;5058303;28;20448;-89
2023/01/04 13:05:17;;;;;;;13.48;2.67;;;12.30;99.90;;;;;;5057640;28;20055;-90
2023/01/04 13:07:45;;;;;;;12.02;2.55;;;12.30;99.90;;;;;;5057286;28;20491;-90
2023/01/04 13:10:35;;;;;;;13.85;2.42;;;11.80;99.90;;;;;;5058366;28;20087;-90
2023/01/04 13:13:25;;;;;;;16.20;3.00;;;12.30;99.90;;;;;;5058331;28;20047;-89
2023/01/04 13:16:12;;;;;;;16.50;2.72;;;12.40;99.90;;;;;;5066801;28;20097;-90
2023/01/04 13:18:47;;;;;;;14.90;3.47;;;12.30;99.90;;;;;;5059440;28;20396;-90
2023/01/04 13:21:30;;;;;;;16.33;2.77;;;12.30;99.90;;;;;;5059085;28;20119;-89
2023/01/04 13:24:18;;;;;;;18.10;3.90;;;12.40;99.90;;;;;;5057336;28;20400;-89
2023/01/04 13:26:44;;;;;;;13.07;3.60;;;12.40;99.90;;;;;;5059199;28;20040;-91
2023/01/04 13:29:13;;;;;;;15.65;3.50;;;12.30;99.90;;;;;;5057666;28;20518;-89
2023/01/04 13:31:57;;;;;;;17.80;3.42;;;12.40;99.90;;;;;;5058649;28;20127;-89
2023/01/04 13:34:22;;;;;;;15.18;2.80;;;11.90;99.90;;;;;;5057751;28;20047;-90
2023/01/04 13:37:03;;;;;;;13.63;3.17;;;12.40;99.90;;;;;;5058535;28;20040;-89
2023/01/04 13:39:29;;;;;;;21.30;3.00;;;12.40;99.90;;;;;;5057577;28;20044;-90
2023/01/04 13:41:56;;;;;;;13.23;3.28;;;12.40;99.90;;;;;;5058443;28;20407;-91
2023/01/04 13:44:42;;;;;;;14.05;2.55;;;12.40;99.90;;;;;;5048176;28;20040;-90
2023/01/04 13:47:08;;;;;;;13.90;2.57;;;12.60;99.90;;;;;;5076078;28;20059;-89
2023/01/04 13:49:38;;;;;;;19.00;3.00;;;11.50;99.90;;;;;;5041191;28;20047;-90
2023/01/04 13:52:34;;;;;;;14.05;2.95;;;12.40;99.90;;;;;;5058158;28;20110;-90
2023/01/04 13:55:26;;;;;;;15.07;2.90;;;12.30;99.90;;;;;;5048150;28;20527;-89
2023/01/04 13:57:55;;;;;;;17.70;2.75;;;12.30;99.90;;;;;;5057694;28;20050;-90
2023/01/04 14:00:22;;;;;;;14.40;2.72;;;12.40;99.90;;;;;;5056744;28;20066;-89
2023/01/04 14:03:03;;;;;;;17.67;3.13;;;12.30;99.90;;;;;;5058336;28;20140;-90
2023/01/04 14:05:29;;;;;;;16.88;3.13;;;12.30;99.90;;;;;;5057746;28;20161;-90
2023/01/04 14:07:55;;;;;;;12.80;2.78;;;12.30;99.90;;;;;;5041047;28;20075;-89
2023/01/04 14:10:21;;;;;;;14.45;3.00;;;12.30;99.90;;;;;;5057917;28;20040;-90